Alfredo Vasconcelos, Brazil
Current Conditions -  °F | °C
As of 8:00 PM on Friday 28 Nov 2014 (Local Time) from SBBQ Reporting Station
Broken Clouds Broken Clouds  
Wind Chill: 66°   Ceiling: 1300
Heat Index: 66°   Visibility: 6mi
Dew Point: 63°   Wind: 7mph
Humidity: 88%   Direction: 150°SSE
Pressure: 30.15"   Gusts: NA
Location:  21.15°S, 43.78°W
Report Text: SBBQ 282200Z 15006KT 9999 BKN013 19/17 Q1021
Loading
Personal Weather Stations






























Interactive Weather Map New forecast layout! Learn more

10-Day Weather Forecast

Advertisements
Track Severe Weather on mobile